sensor_id;sensor_type;location;lat;lon;timestamp;P1;durP1;ratioP1;P2;durP2;ratioP2
35990;SDS011;22064;42.672;23.282;2023-07-02T00:01:52;13.77;;;6.50;;
35990;SDS011;22064;42.672;23.282;2023-07-02T00:04:18;15.65;;;6.72;;
35990;SDS011;22064;42.672;23.282;2023-07-02T00:06:47;14.57;;;6.30;;
35990;SDS011;22064;42.672;23.282;2023-07-02T00:09:14;15.02;;;7.43;;
35990;SDS011;22064;42.672;23.282;2023-07-02T00:11:44;17.63;;;6.70;;
35990;SDS011;22064;42.672;23.282;2023-07-02T00:14:11;19.80;;;6.75;;
35990;SDS011;22064;42.672;23.282;2023-07-02T00:16:39;14.88;;;6.93;;
35990;SDS011;22064;42.672;23.282;2023-07-02T00:19:09;15.75;;;7.18;;
35990;SDS011;22064;42.672;23.282;2023-07-02T00:21:35;13.00;;;5.57;;
35990;SDS011;22064;42.672;23.282;2023-07-02T00:24:02;14.63;;;6.13;;
35990;SDS011;22064;42.672;23.282;2023-07-02T00:26:29;14.18;;;6.53;;
35990;SDS011;22064;42.672;23.282;2023-07-02T00:28:55;14.60;;;6.57;;
35990;SDS011;22064;42.672;23.282;2023-07-02T00:31:22;13.95;;;6.65;;
35990;SDS011;22064;42.672;23.282;2023-07-02T00:33:49;15.43;;;6.45;;
35990;SDS011;22064;42.672;23.282;2023-07-02T00:36:16;17.27;;;6.75;;
35990;SDS011;22064;42.672;23.282;2023-07-02T00:38:42;14.85;;;6.18;;
35990;SDS011;22064;42.672;23.282;2023-07-02T00:41:10;15.32;;;6.50;;
35990;SDS011;22064;42.672;23.282;2023-07-02T00:43:36;16.55;;;6.93;;
35990;SDS011;22064;42.672;23.282;2023-07-02T00:46:18;15.52;;;7.05;;
35990;SDS011;22064;42.672;23.282;2023-07-02T00:48:51;13.57;;;6.43;;
35990;SDS011;22064;42.672;23.282;2023-07-02T00:51:22;17.40;;;6.95;;
35990;SDS011;22064;42.672;23.282;2023-07-02T00:53:53;15.05;;;5.60;;
35990;SDS011;22064;42.672;23.282;2023-07-02T00:56:20;13.52;;;6.28;;
35990;SDS011;22064;42.672;23.282;2023-07-02T00:58:48;13.32;;;6.43;;
35990;SDS011;22064;42.672;23.282;2023-07-02T01:01:22;14.85;;;6.63;;
35990;SDS011;22064;42.672;23.282;2023-07-02T01:03:57;18.80;;;7.55;;
35990;SDS011;22064;42.672;23.282;2023-07-02T01:06:31;16.67;;;6.47;;
35990;SDS011;22064;42.672;23.282;2023-07-02T01:08:59;13.55;;;6.32;;
35990;SDS011;22064;42.672;23.282;2023-07-02T01:11:27;14.52;;;6.03;;
35990;SDS011;22064;42.672;23.282;2023-07-02T01:13:58;12.75;;;5.40;;
35990;SDS011;22064;42.672;23.282;2023-07-02T01:16:35;13.98;;;6.15;;
35990;SDS011;22064;42.672;23.282;2023-07-02T01:19:04;17.77;;;6.95;;
35990;SDS011;22064;42.672;23.282;2023-07-02T01:21:36;15.10;;;6.57;;
35990;SDS011;22064;42.672;23.282;2023-07-02T01:24:02;16.08;;;6.70;;
35990;SDS011;22064;42.672;23.282;2023-07-02T01:26:31;16.05;;;7.22;;
35990;SDS011;22064;42.672;23.282;2023-07-02T01:29:15;13.38;;;6.13;;
35990;SDS011;22064;42.672;23.282;2023-07-02T01:31:45;14.98;;;6.22;;
35990;SDS011;22064;42.672;23.282;2023-07-02T01:34:13;15.88;;;6.95;;
35990;SDS011;22064;42.672;23.282;2023-07-02T01:36:39;16.63;;;6.68;;
35990;SDS011;22064;42.672;23.282;2023-07-02T01:39:05;15.43;;;7.22;;
35990;SDS011;22064;42.672;23.282;2023-07-02T01:41:36;14.25;;;6.80;;
35990;SDS011;22064;42.672;23.282;2023-07-02T01:44:08;16.83;;;6.95;;
35990;SDS011;22064;42.672;23.282;2023-07-02T01:46:34;17.15;;;7.15;;
35990;SDS011;22064;42.672;23.282;2023-07-02T01:49:00;19.02;;;8.35;;
35990;SDS011;22064;42.672;23.282;2023-07-02T01:51:25;19.75;;;7.43;;
35990;SDS011;22064;42.672;23.282;2023-07-02T01:53:51;19.17;;;7.75;;
35990;SDS011;22064;42.672;23.282;2023-07-02T01:56:17;15.98;;;7.40;;
35990;SDS011;22064;42.672;23.282;2023-07-02T01:58:43;17.67;;;7.68;;
35990;SDS011;22064;42.672;23.282;2023-07-02T02:01:09;17.05;;;7.32;;
35990;SDS011;22064;42.672;23.282;2023-07-02T02:03:35;15.95;;;7.18;;
35990;SDS011;22064;42.672;23.282;2023-07-02T02:06:01;14.68;;;7.72;;
35990;SDS011;22064;42.672;23.282;2023-07-02T02:08:27;17.23;;;7.82;;
35990;SDS011;22064;42.672;23.282;2023-07-02T02:10:53;16.27;;;7.05;;
35990;SDS011;22064;42.672;23.282;2023-07-02T02:13:19;19.40;;;7.82;;
35990;SDS011;22064;42.672;23.282;2023-07-02T02:15:44;15.40;;;7.20;;
35990;SDS011;22064;42.672;23.282;2023-07-02T02:18:10;17.13;;;7.22;;
35990;SDS011;22064;42.672;23.282;2023-07-02T02:20:36;15.00;;;6.95;;
35990;SDS011;22064;42.672;23.282;2023-07-02T02:23:02;18.50;;;7.90;;
35990;SDS011;22064;42.672;23.282;2023-07-02T02:25:30;15.02;;;7.30;;
35990;SDS011;22064;42.672;23.282;2023-07-02T02:27:56;15.82;;;7.50;;
35990;SDS011;22064;42.672;23.282;2023-07-02T02:30:22;21.23;;;8.15;;
35990;SDS011;22064;42.672;23.282;2023-07-02T02:32:48;17.98;;;7.95;;
35990;SDS011;22064;42.672;23.282;2023-07-02T02:35:15;17.13;;;8.15;;
35990;SDS011;22064;42.672;23.282;2023-07-02T02:37:41;20.83;;;9.45;;
35990;SDS011;22064;42.672;23.282;2023-07-02T02:40:08;19.50;;;8.52;;
35990;SDS011;22064;42.672;23.282;2023-07-02T02:42:35;18.25;;;8.20;;
35990;SDS011;22064;42.672;23.282;2023-07-02T02:45:03;18.27;;;7.78;;
35990;SDS011;22064;42.672;23.282;2023-07-02T02:47:29;19.20;;;8.18;;
35990;SDS011;22064;42.672;23.282;2023-07-02T02:49:55;18.27;;;7.78;;
35990;SDS011;22064;42.672;23.282;2023-07-02T02:52:21;20.52;;;8.05;;
35990;SDS011;22064;42.672;23.282;2023-07-02T02:54:47;19.08;;;8.13;;
35990;SDS011;22064;42.672;23.282;2023-07-02T02:57:13;18.60;;;8.07;;
35990;SDS011;22064;42.672;23.282;2023-07-02T02:59:39;14.35;;;7.07;;
35990;SDS011;22064;42.672;23.282;2023-07-02T03:02:05;18.50;;;7.45;;
35990;SDS011;22064;42.672;23.282;2023-07-02T03:04:31;17.85;;;7.28;;
35990;SDS011;22064;42.672;23.282;2023-07-02T03:06:57;16.73;;;7.25;;
35990;SDS011;22064;42.672;23.282;2023-07-02T03:09:23;19.48;;;7.05;;
35990;SDS011;22064;42.672;23.282;2023-07-02T03:11:49;19.02;;;7.65;;
35990;SDS011;22064;42.672;23.282;2023-07-02T03:14:15;15.85;;;6.88;;
35990;SDS011;22064;42.672;23.282;2023-07-02T03:16:41;16.48;;;7.13;;
35990;SDS011;22064;42.672;23.282;2023-07-02T03:19:08;16.80;;;7.45;;
35990;SDS011;22064;42.672;23.282;2023-07-02T03:21:34;19.80;;;8.00;;
35990;SDS011;22064;42.672;23.282;2023-07-02T03:23:59;16.65;;;7.70;;
35990;SDS011;22064;42.672;23.282;2023-07-02T03:26:25;15.70;;;6.72;;
35990;SDS011;22064;42.672;23.282;2023-07-02T03:28:51;15.57;;;6.47;;
35990;SDS011;22064;42.672;23.282;2023-07-02T03:31:17;15.80;;;6.90;;
35990;SDS011;22064;42.672;23.282;2023-07-02T03:33:43;16.98;;;6.80;;
35990;SDS011;22064;42.672;23.282;2023-07-02T03:36:09;14.90;;;6.47;;
35990;SDS011;22064;42.672;23.282;2023-07-02T03:38:35;15.50;;;6.85;;
35990;SDS011;22064;42.672;23.282;2023-07-02T03:41:01;16.08;;;6.97;;
35990;SDS011;22064;42.672;23.282;2023-07-02T03:43:27;17.83;;;7.57;;
35990;SDS011;22064;42.672;23.282;2023-07-02T03:45:53;18.73;;;7.60;;
35990;SDS011;22064;42.672;23.282;2023-07-02T03:48:19;15.27;;;6.78;;
35990;SDS011;22064;42.672;23.282;2023-07-02T03:50:45;18.30;;;8.02;;
35990;SDS011;22064;42.672;23.282;2023-07-02T03:53:11;16.25;;;7.40;;
35990;SDS011;22064;42.672;23.282;2023-07-02T03:55:37;13.65;;;6.55;;
35990;SDS011;22064;42.672;23.282;2023-07-02T03:58:04;16.02;;;7.18;;
35990;SDS011;22064;42.672;23.282;2023-07-02T04:00:30;16.33;;;6.78;;
35990;SDS011;22064;42.672;23.282;2023-07-02T04:02:56;15.38;;;7.15;;
35990;SDS011;22064;42.672;23.282;2023-07-02T04:05:23;17.30;;;7.15;;
35990;SDS011;22064;42.672;23.282;2023-07-02T04:07:49;16.08;;;7.28;;
35990;SDS011;22064;42.672;23.282;2023-07-02T04:10:15;14.68;;;6.63;;
35990;SDS011;22064;42.672;23.282;2023-07-02T04:12:41;17.60;;;7.95;;
35990;SDS011;22064;42.672;23.282;2023-07-02T04:15:07;16.35;;;7.10;;
35990;SDS011;22064;42.672;23.282;2023-07-02T04:17:34;16.73;;;6.90;;
35990;SDS011;22064;42.672;23.282;2023-07-02T04:20:00;15.90;;;6.78;;
35990;SDS011;22064;42.672;23.282;2023-07-02T04:22:29;15.65;;;6.03;;
35990;SDS011;22064;42.672;23.282;2023-07-02T04:24:55;15.38;;;6.38;;
35990;SDS011;22064;42.672;23.282;2023-07-02T04:27:21;14.50;;;6.65;;
35990;SDS011;22064;42.672;23.282;2023-07-02T04:29:47;14.13;;;6.28;;
35990;SDS011;22064;42.672;23.282;2023-07-02T04:32:13;19.27;;;7.05;;
35990;SDS011;22064;42.672;23.282;2023-07-02T04:34:39;15.57;;;7.32;;
35990;SDS011;22064;42.672;23.282;2023-07-02T04:37:08;16.48;;;7.10;;
35990;SDS011;22064;42.672;23.282;2023-07-02T04:39:35;18.50;;;7.80;;
35990;SDS011;22064;42.672;23.282;2023-07-02T04:42:01;19.40;;;7.00;;
35990;SDS011;22064;42.672;23.282;2023-07-02T04:44:27;17.40;;;7.18;;
35990;SDS011;22064;42.672;23.282;2023-07-02T04:46:58;17.60;;;7.47;;
35990;SDS011;22064;42.672;23.282;2023-07-02T04:49:26;15.98;;;6.70;;
35990;SDS011;22064;42.672;23.282;2023-07-02T04:51:52;15.38;;;6.65;;
35990;SDS011;22064;42.672;23.282;2023-07-02T04:54:19;16.02;;;7.15;;
35990;SDS011;22064;42.672;23.282;2023-07-02T04:56:46;16.38;;;6.78;;
35990;SDS011;22064;42.672;23.282;2023-07-02T04:59:14;18.63;;;6.85;;
35990;SDS011;22064;42.672;23.282;2023-07-02T05:01:41;18.65;;;6.30;;
35990;SDS011;22064;42.672;23.282;2023-07-02T05:04:09;16.88;;;6.45;;
35990;SDS011;22064;42.672;23.282;2023-07-02T05:06:35;16.67;;;6.93;;
35990;SDS011;22064;42.672;23.282;2023-07-02T05:09:01;14.05;;;6.90;;
35990;SDS011;22064;42.672;23.282;2023-07-02T05:11:27;14.27;;;6.07;;
35990;SDS011;22064;42.672;23.282;2023-07-02T05:13:53;18.27;;;6.80;;
35990;SDS011;22064;42.672;23.282;2023-07-02T05:16:19;17.65;;;6.50;;
35990;SDS011;22064;42.672;23.282;2023-07-02T05:18:45;16.10;;;6.72;;
35990;SDS011;22064;42.672;23.282;2023-07-02T05:21:11;16.42;;;7.15;;
35990;SDS011;22064;42.672;23.282;2023-07-02T05:23:37;14.95;;;6.70;;
35990;SDS011;22064;42.672;23.282;2023-07-02T05:26:03;15.93;;;7.22;;
35990;SDS011;22064;42.672;23.282;2023-07-02T05:28:29;14.70;;;6.68;;
35990;SDS011;22064;42.672;23.282;2023-07-02T05:30:55;17.20;;;6.68;;
35990;SDS011;22064;42.672;23.282;2023-07-02T05:33:21;14.93;;;7.00;;
35990;SDS011;22064;42.672;23.282;2023-07-02T05:35:49;16.65;;;7.00;;
35990;SDS011;22064;42.672;23.282;2023-07-02T05:38:17;16.65;;;6.95;;
35990;SDS011;22064;42.672;23.282;2023-07-02T05:40:45;19.13;;;7.20;;
35990;SDS011;22064;42.672;23.282;2023-07-02T05:43:11;16.30;;;6.90;;
35990;SDS011;22064;42.672;23.282;2023-07-02T05:45:37;18.25;;;7.15;;
35990;SDS011;22064;42.672;23.282;2023-07-02T05:48:03;17.00;;;7.47;;
35990;SDS011;22064;42.672;23.282;2023-07-02T05:50:29;17.08;;;7.15;;
35990;SDS011;22064;42.672;23.282;2023-07-02T05:52:55;16.73;;;7.63;;
35990;SDS011;22064;42.672;23.282;2023-07-02T05:55:21;17.13;;;7.63;;
35990;SDS011;22064;42.672;23.282;2023-07-02T05:57:47;16.70;;;7.80;;
35990;SDS011;22064;42.672;23.282;2023-07-02T06:00:13;17.52;;;7.15;;
35990;SDS011;22064;42.672;23.282;2023-07-02T06:02:39;15.35;;;6.97;;
35990;SDS011;22064;42.672;23.282;2023-07-02T06:05:05;18.80;;;8.18;;
35990;SDS011;22064;42.672;23.282;2023-07-02T06:07:31;19.95;;;7.85;;
35990;SDS011;22064;42.672;23.282;2023-07-02T06:09:57;20.75;;;8.50;;
35990;SDS011;22064;42.672;23.282;2023-07-02T06:12:23;19.55;;;8.23;;
35990;SDS011;22064;42.672;23.282;2023-07-02T06:14:49;16.77;;;8.00;;
35990;SDS011;22064;42.672;23.282;2023-07-02T06:17:15;15.40;;;7.38;;
35990;SDS011;22064;42.672;23.282;2023-07-02T06:19:41;14.85;;;7.20;;
35990;SDS011;22064;42.672;23.282;2023-07-02T06:22:07;18.75;;;7.35;;
35990;SDS011;22064;42.672;23.282;2023-07-02T06:24:33;18.13;;;7.13;;
35990;SDS011;22064;42.672;23.282;2023-07-02T06:26:59;16.23;;;7.40;;
35990;SDS011;22064;42.672;23.282;2023-07-02T06:29:25;17.20;;;7.93;;
35990;SDS011;22064;42.672;23.282;2023-07-02T06:31:51;17.23;;;7.05;;
35990;SDS011;22064;42.672;23.282;2023-07-02T06:34:17;14.18;;;6.78;;
35990;SDS011;22064;42.672;23.282;2023-07-02T06:36:43;17.13;;;8.30;;
35990;SDS011;22064;42.672;23.282;2023-07-02T06:39:09;16.52;;;7.13;;
35990;SDS011;22064;42.672;23.282;2023-07-02T06:41:35;18.85;;;7.95;;
35990;SDS011;22064;42.672;23.282;2023-07-02T06:44:01;15.20;;;6.78;;
35990;SDS011;22064;42.672;23.282;2023-07-02T06:46:28;18.25;;;8.57;;
35990;SDS011;22064;42.672;23.282;2023-07-02T06:48:54;15.38;;;7.50;;
35990;SDS011;22064;42.672;23.282;2023-07-02T06:51:20;16.80;;;7.35;;
35990;SDS011;22064;42.672;23.282;2023-07-02T06:53:47;17.20;;;7.40;;
35990;SDS011;22064;42.672;23.282;2023-07-02T06:56:13;16.75;;;8.40;;
35990;SDS011;22064;42.672;23.282;2023-07-02T06:58:41;17.73;;;7.50;;
35990;SDS011;22064;42.672;23.282;2023-07-02T07:01:07;16.48;;;7.20;;
35990;SDS011;22064;42.672;23.282;2023-07-02T07:03:34;16.83;;;7.32;;
35990;SDS011;22064;42.672;23.282;2023-07-02T07:06:00;18.55;;;7.75;;
35990;SDS011;22064;42.672;23.282;2023-07-02T07:08:26;16.05;;;7.53;;
35990;SDS011;22064;42.672;23.282;2023-07-02T07:10:52;18.65;;;7.30;;
35990;SDS011;22064;42.672;23.282;2023-07-02T07:13:18;15.60;;;6.85;;
35990;SDS011;22064;42.672;23.282;2023-07-02T07:15:44;15.00;;;7.00;;
35990;SDS011;22064;42.672;23.282;2023-07-02T07:18:10;17.90;;;7.65;;
35990;SDS011;22064;42.672;23.282;2023-07-02T07:20:38;18.80;;;7.63;;
35990;SDS011;22064;42.672;23.282;2023-07-02T07:23:04;17.40;;;7.75;;
35990;SDS011;22064;42.672;23.282;2023-07-02T07:25:31;19.38;;;7.28;;
35990;SDS011;22064;42.672;23.282;2023-07-02T07:27:59;16.92;;;7.10;;
35990;SDS011;22064;42.672;23.282;2023-07-02T07:30:25;19.50;;;7.70;;
35990;SDS011;22064;42.672;23.282;2023-07-02T07:32:52;16.52;;;7.40;;
35990;SDS011;22064;42.672;23.282;2023-07-02T07:35:19;16.83;;;7.15;;
35990;SDS011;22064;42.672;23.282;2023-07-02T07:37:47;16.95;;;7.43;;
35990;SDS011;22064;42.672;23.282;2023-07-02T07:40:13;18.35;;;7.75;;
35990;SDS011;22064;42.672;23.282;2023-07-02T07:42:40;15.68;;;7.40;;
35990;SDS011;22064;42.672;23.282;2023-07-02T07:45:08;16.35;;;7.43;;
35990;SDS011;22064;42.672;23.282;2023-07-02T07:47:35;18.10;;;7.32;;
35990;SDS011;22064;42.672;23.282;2023-07-02T07:50:02;15.73;;;7.20;;
35990;SDS011;22064;42.672;23.282;2023-07-02T07:52:28;14.65;;;7.10;;
35990;SDS011;22064;42.672;23.282;2023-07-02T07:54:54;16.73;;;7.15;;
35990;SDS011;22064;42.672;23.282;2023-07-02T07:57:19;15.18;;;6.53;;
35990;SDS011;22064;42.672;23.282;2023-07-02T07:59:45;16.25;;;6.78;;
35990;SDS011;22064;42.672;23.282;2023-07-02T08:02:11;14.77;;;6.70;;
35990;SDS011;22064;42.672;23.282;2023-07-02T08:04:37;14.52;;;6.45;;
35990;SDS011;22064;42.672;23.282;2023-07-02T08:07:03;14.55;;;7.00;;
35990;SDS011;22064;42.672;23.282;2023-07-02T08:09:30;16.52;;;7.00;;
35990;SDS011;22064;42.672;23.282;2023-07-02T08:11:56;14.40;;;6.65;;
35990;SDS011;22064;42.672;23.282;2023-07-02T08:14:22;12.07;;;7.03;;
35990;SDS011;22064;42.672;23.282;2023-07-02T08:16:48;13.77;;;6.80;;
35990;SDS011;22064;42.672;23.282;2023-07-02T08:19:14;15.90;;;7.40;;
35990;SDS011;22064;42.672;23.282;2023-07-02T08:21:40;12.70;;;6.45;;
35990;SDS011;22064;42.672;23.282;2023-07-02T08:24:05;13.02;;;6.65;;
35990;SDS011;22064;42.672;23.282;2023-07-02T08:26:31;16.00;;;6.50;;
35990;SDS011;22064;42.672;23.282;2023-07-02T08:28:57;12.50;;;6.00;;
35990;SDS011;22064;42.672;23.282;2023-07-02T08:31:23;12.55;;;6.32;;
35990;SDS011;22064;42.672;23.282;2023-07-02T08:33:49;15.18;;;6.68;;
35990;SDS011;22064;42.672;23.282;2023-07-02T08:36:15;14.90;;;6.55;;
35990;SDS011;22064;42.672;23.282;2023-07-02T08:38:41;12.90;;;6.40;;
35990;SDS011;22064;42.672;23.282;2023-07-02T08:41:08;17.90;;;7.32;;
35990;SDS011;22064;42.672;23.282;2023-07-02T08:43:35;15.18;;;6.85;;
35990;SDS011;22064;42.672;23.282;2023-07-02T08:46:01;14.13;;;6.72;;
35990;SDS011;22064;42.672;23.282;2023-07-02T08:48:28;13.63;;;6.28;;
35990;SDS011;22064;42.672;23.282;2023-07-02T08:50:55;15.40;;;6.38;;
35990;SDS011;22064;42.672;23.282;2023-07-02T08:53:21;15.55;;;6.50;;
35990;SDS011;22064;42.672;23.282;2023-07-02T08:55:55;10.50;;;5.90;;
35990;SDS011;22064;42.672;23.282;2023-07-02T08:58:21;15.18;;;6.47;;
35990;SDS011;22064;42.672;23.282;2023-07-02T09:01:06;12.00;;;5.88;;
35990;SDS011;22064;42.672;23.282;2023-07-02T09:03:34;14.35;;;6.60;;
35990;SDS011;22064;42.672;23.282;2023-07-02T09:06:03;12.45;;;6.15;;
35990;SDS011;22064;42.672;23.282;2023-07-02T09:08:30;11.70;;;6.15;;
35990;SDS011;22064;42.672;23.282;2023-07-02T09:11:14;12.73;;;5.72;;
35990;SDS011;22064;42.672;23.282;2023-07-02T09:13:46;12.40;;;5.90;;
35990;SDS011;22064;42.672;23.282;2023-07-02T09:16:21;11.48;;;5.65;;
35990;SDS011;22064;42.672;23.282;2023-07-02T09:21:27;13.00;;;6.40;;
35990;SDS011;22064;42.672;23.282;2023-07-02T09:24:15;12.63;;;5.55;;
35990;SDS011;22064;42.672;23.282;2023-07-02T09:26:45;12.85;;;6.63;;
35990;SDS011;22064;42.672;23.282;2023-07-02T09:29:12;9.57;;;5.65;;
35990;SDS011;22064;42.672;23.282;2023-07-02T09:31:46;12.80;;;6.38;;
35990;SDS011;22064;42.672;23.282;2023-07-02T09:34:12;10.00;;;5.82;;
35990;SDS011;22064;42.672;23.282;2023-07-02T09:36:39;13.63;;;6.43;;
35990;SDS011;22064;42.672;23.282;2023-07-02T09:39:12;12.77;;;5.63;;
35990;SDS011;22064;42.672;23.282;2023-07-02T09:41:42;12.68;;;6.38;;
35990;SDS011;22064;42.672;23.282;2023-07-02T09:46:41;11.18;;;5.97;;
35990;SDS011;22064;42.672;23.282;2023-07-02T09:49:11;12.50;;;5.70;;
35990;SDS011;22064;42.672;23.282;2023-07-02T09:51:40;10.45;;;5.45;;
35990;SDS011;22064;42.672;23.282;2023-07-02T09:54:08;13.93;;;5.95;;
35990;SDS011;22064;42.672;23.282;2023-07-02T09:56:34;12.07;;;6.07;;
35990;SDS011;22064;42.672;23.282;2023-07-02T09:59:00;13.55;;;6.53;;
35990;SDS011;22064;42.672;23.282;2023-07-02T10:01:26;9.15;;;5.32;;
35990;SDS011;22064;42.672;23.282;2023-07-02T10:03:52;10.80;;;5.43;;
35990;SDS011;22064;42.672;23.282;2023-07-02T10:06:18;14.00;;;5.57;;
35990;SDS011;22064;42.672;23.282;2023-07-02T10:08:56;10.43;;;4.97;;
35990;SDS011;22064;42.672;23.282;2023-07-02T10:11:32;10.35;;;5.13;;
35990;SDS011;22064;42.672;23.282;2023-07-02T10:14:01;8.35;;;5.00;;
35990;SDS011;22064;42.672;23.282;2023-07-02T10:16:27;11.52;;;5.25;;
35990;SDS011;22064;42.672;23.282;2023-07-02T10:18:54;10.52;;;5.38;;
35990;SDS011;22064;42.672;23.282;2023-07-02T10:21:20;8.70;;;4.97;;
35990;SDS011;22064;42.672;23.282;2023-07-02T10:23:46;10.10;;;5.60;;
35990;SDS011;22064;42.672;23.282;2023-07-02T10:26:16;10.75;;;5.80;;
35990;SDS011;22064;42.672;23.282;2023-07-02T10:28:43;9.60;;;5.20;;
35990;SDS011;22064;42.672;23.282;2023-07-02T10:31:21;8.05;;;5.07;;
35990;SDS011;22064;42.672;23.282;2023-07-02T10:33:47;8.73;;;5.07;;
35990;SDS011;22064;42.672;23.282;2023-07-02T10:38:46;11.23;;;4.90;;
35990;SDS011;22064;42.672;23.282;2023-07-02T10:41:22;8.75;;;5.10;;
35990;SDS011;22064;42.672;23.282;2023-07-02T10:43:53;10.63;;;5.35;;
35990;SDS011;22064;42.672;23.282;2023-07-02T10:46:19;9.25;;;5.60;;
35990;SDS011;22064;42.672;23.282;2023-07-02T10:48:52;8.68;;;5.07;;
35990;SDS011;22064;42.672;23.282;2023-07-02T10:51:19;10.70;;;5.35;;
35990;SDS011;22064;42.672;23.282;2023-07-02T10:53:56;8.88;;;4.60;;
35990;SDS011;22064;42.672;23.282;2023-07-02T10:56:24;6.47;;;4.30;;
35990;SDS011;22064;42.672;23.282;2023-07-02T10:58:51;8.60;;;4.45;;
35990;SDS011;22064;42.672;23.282;2023-07-02T11:04:00;12.13;;;5.15;;
35990;SDS011;22064;42.672;23.282;2023-07-02T11:06:29;7.50;;;4.20;;
35990;SDS011;22064;42.672;23.282;2023-07-02T11:08:56;8.43;;;4.57;;
35990;SDS011;22064;42.672;23.282;2023-07-02T11:11:23;8.27;;;4.50;;
35990;SDS011;22064;42.672;23.282;2023-07-02T11:13:50;10.20;;;4.70;;
35990;SDS011;22064;42.672;23.282;2023-07-02T11:16:22;8.13;;;4.22;;
35990;SDS011;22064;42.672;23.282;2023-07-02T11:18:52;10.70;;;4.63;;
35990;SDS011;22064;42.672;23.282;2023-07-02T11:21:20;12.18;;;5.50;;
35990;SDS011;22064;42.672;23.282;2023-07-02T11:23:46;10.88;;;5.07;;
35990;SDS011;22064;42.672;23.282;2023-07-02T11:26:12;7.85;;;4.53;;
35990;SDS011;22064;42.672;23.282;2023-07-02T11:28:47;8.95;;;4.25;;
35990;SDS011;22064;42.672;23.282;2023-07-02T11:31:23;9.10;;;4.70;;
35990;SDS011;22064;42.672;23.282;2023-07-02T11:33:50;8.55;;;4.63;;
35990;SDS011;22064;42.672;23.282;2023-07-02T11:36:22;8.93;;;4.95;;
35990;SDS011;22064;42.672;23.282;2023-07-02T11:38:54;10.18;;;4.95;;
35990;SDS011;22064;42.672;23.282;2023-07-02T11:41:20;8.43;;;4.53;;
35990;SDS011;22064;42.672;23.282;2023-07-02T11:43:47;10.43;;;4.30;;
35990;SDS011;22064;42.672;23.282;2023-07-02T11:46:13;7.03;;;4.10;;
35990;SDS011;22064;42.672;23.282;2023-07-02T11:48:39;8.38;;;4.28;;
35990;SDS011;22064;42.672;23.282;2023-07-02T11:51:05;8.65;;;4.28;;
35990;SDS011;22064;42.672;23.282;2023-07-02T11:53:31;6.60;;;3.92;;
35990;SDS011;22064;42.672;23.282;2023-07-02T11:55:57;7.40;;;3.78;;
35990;SDS011;22064;42.672;23.282;2023-07-02T11:58:23;4.78;;;3.20;;
35990;SDS011;22064;42.672;23.282;2023-07-02T12:00:49;7.13;;;3.15;;
35990;SDS011;22064;42.672;23.282;2023-07-02T12:03:15;6.05;;;3.50;;
35990;SDS011;22064;42.672;23.282;2023-07-02T12:05:41;7.35;;;3.60;;
35990;SDS011;22064;42.672;23.282;2023-07-02T12:08:07;5.50;;;3.60;;
35990;SDS011;22064;42.672;23.282;2023-07-02T12:10:33;6.72;;;3.70;;
35990;SDS011;22064;42.672;23.282;2023-07-02T12:12:59;7.90;;;3.72;;
35990;SDS011;22064;42.672;23.282;2023-07-02T12:15:25;7.30;;;3.97;;
35990;SDS011;22064;42.672;23.282;2023-07-02T12:17:51;7.95;;;4.13;;
35990;SDS011;22064;42.672;23.282;2023-07-02T12:20:17;7.85;;;3.80;;
35990;SDS011;22064;42.672;23.282;2023-07-02T12:22:42;10.43;;;4.78;;
35990;SDS011;22064;42.672;23.282;2023-07-02T12:25:09;8.52;;;4.40;;
35990;SDS011;22064;42.672;23.282;2023-07-02T12:27:35;10.05;;;4.90;;
35990;SDS011;22064;42.672;23.282;2023-07-02T12:30:02;11.30;;;5.57;;
35990;SDS011;22064;42.672;23.282;2023-07-02T12:32:28;9.75;;;5.10;;
35990;SDS011;22064;42.672;23.282;2023-07-02T12:34:55;9.90;;;5.25;;
35990;SDS011;22064;42.672;23.282;2023-07-02T12:37:21;9.93;;;5.50;;
35990;SDS011;22064;42.672;23.282;2023-07-02T12:39:47;9.05;;;4.82;;
35990;SDS011;22064;42.672;23.282;2023-07-02T12:42:13;9.38;;;5.03;;
35990;SDS011;22064;42.672;23.282;2023-07-02T12:44:39;10.07;;;5.10;;
35990;SDS011;22064;42.672;23.282;2023-07-02T12:47:05;10.52;;;4.95;;
35990;SDS011;22064;42.672;23.282;2023-07-02T12:49:31;9.48;;;5.13;;
35990;SDS011;22064;42.672;23.282;2023-07-02T12:51:57;9.10;;;4.90;;
35990;SDS011;22064;42.672;23.282;2023-07-02T12:54:23;8.50;;;4.93;;
35990;SDS011;22064;42.672;23.282;2023-07-02T12:56:49;9.23;;;4.65;;
35990;SDS011;22064;42.672;23.282;2023-07-02T12:59:15;8.43;;;4.97;;
35990;SDS011;22064;42.672;23.282;2023-07-02T13:01:41;9.73;;;4.97;;
35990;SDS011;22064;42.672;23.282;2023-07-02T13:04:07;10.30;;;5.20;;
35990;SDS011;22064;42.672;23.282;2023-07-02T13:06:33;9.27;;;4.80;;
35990;SDS011;22064;42.672;23.282;2023-07-02T13:09:06;8.75;;;4.78;;
35990;SDS011;22064;42.672;23.282;2023-07-02T13:11:32;12.95;;;5.78;;
35990;SDS011;22064;42.672;23.282;2023-07-02T13:13:58;10.90;;;5.22;;
35990;SDS011;22064;42.672;23.282;2023-07-02T13:16:25;9.20;;;5.30;;
35990;SDS011;22064;42.672;23.282;2023-07-02T13:18:51;9.23;;;4.97;;
35990;SDS011;22064;42.672;23.282;2023-07-02T13:21:18;8.32;;;5.13;;
35990;SDS011;22064;42.672;23.282;2023-07-02T13:23:44;9.60;;;5.32;;
35990;SDS011;22064;42.672;23.282;2023-07-02T13:26:09;8.93;;;5.10;;
35990;SDS011;22064;42.672;23.282;2023-07-02T13:28:35;8.50;;;5.15;;
35990;SDS011;22064;42.672;23.282;2023-07-02T13:31:01;7.85;;;4.80;;
35990;SDS011;22064;42.672;23.282;2023-07-02T13:33:27;8.75;;;4.93;;
35990;SDS011;22064;42.672;23.282;2023-07-02T13:35:54;12.02;;;5.53;;
35990;SDS011;22064;42.672;23.282;2023-07-02T13:38:20;9.10;;;5.10;;
35990;SDS011;22064;42.672;23.282;2023-07-02T13:40:46;11.95;;;5.28;;
35990;SDS011;22064;42.672;23.282;2023-07-02T13:43:12;9.90;;;5.30;;
35990;SDS011;22064;42.672;23.282;2023-07-02T13:45:37;12.55;;;5.60;;
35990;SDS011;22064;42.672;23.282;2023-07-02T13:48:03;9.85;;;5.55;;
35990;SDS011;22064;42.672;23.282;2023-07-02T13:50:30;11.52;;;5.50;;
35990;SDS011;22064;42.672;23.282;2023-07-02T13:52:56;11.00;;;5.40;;
35990;SDS011;22064;42.672;23.282;2023-07-02T13:55:22;12.57;;;5.68;;
35990;SDS011;22064;42.672;23.282;2023-07-02T13:57:54;13.35;;;6.18;;
35990;SDS011;22064;42.672;23.282;2023-07-02T14:00:25;12.32;;;5.57;;
35990;SDS011;22064;42.672;23.282;2023-07-02T14:02:52;10.57;;;5.43;;
35990;SDS011;22064;42.672;23.282;2023-07-02T14:05:18;14.02;;;6.10;;
35990;SDS011;22064;42.672;23.282;2023-07-02T14:07:44;13.80;;;6.07;;
35990;SDS011;22064;42.672;23.282;2023-07-02T14:10:11;13.45;;;5.72;;
35990;SDS011;22064;42.672;23.282;2023-07-02T14:12:41;13.13;;;5.60;;
35990;SDS011;22064;42.672;23.282;2023-07-02T14:15:07;14.35;;;6.13;;
35990;SDS011;22064;42.672;23.282;2023-07-02T14:17:34;11.02;;;6.05;;
35990;SDS011;22064;42.672;23.282;2023-07-02T14:20:00;12.05;;;6.15;;
35990;SDS011;22064;42.672;23.282;2023-07-02T14:22:25;13.98;;;6.47;;
35990;SDS011;22064;42.672;23.282;2023-07-02T14:24:51;12.48;;;6.32;;
35990;SDS011;22064;42.672;23.282;2023-07-02T14:27:17;15.95;;;7.70;;
35990;SDS011;22064;42.672;23.282;2023-07-02T14:29:43;14.23;;;7.05;;
35990;SDS011;22064;42.672;23.282;2023-07-02T14:32:09;15.55;;;7.43;;
35990;SDS011;22064;42.672;23.282;2023-07-02T14:34:35;16.15;;;7.65;;